createdAt,value
2017-10-17T00:00:03.561Z,97.92
2017-10-17T00:02:31.060Z,98.13
2017-10-17T00:04:58.616Z,98.28
2017-10-17T00:07:26.116Z,98.32
2017-10-17T00:09:53.699Z,98.38
2017-10-17T00:12:21.187Z,98.48
2017-10-17T00:14:48.742Z,98.61
2017-10-17T00:17:16.258Z,98.60
2017-10-17T00:19:43.869Z,98.59
2017-10-17T00:22:11.333Z,98.61
2017-10-17T00:24:38.864Z,98.67
2017-10-17T00:27:06.345Z,98.65
2017-10-17T00:29:33.880Z,98.66
2017-10-17T00:32:02.201Z,98.74
2017-10-17T00:34:29.686Z,98.81
2017-10-17T00:36:57.397Z,98.83
2017-10-17T00:39:24.962Z,98.86
2017-10-17T00:41:52.511Z,98.88
2017-10-17T00:44:20.037Z,98.86
2017-10-17T00:46:47.666Z,98.88
2017-10-17T00:49:15.140Z,98.96
2017-10-17T00:51:42.623Z,98.96
2017-10-17T00:54:10.134Z,98.88
2017-10-17T00:56:37.703Z,98.86
2017-10-17T00:59:05.218Z,98.82
2017-10-17T01:01:32.754Z,98.77
2017-10-17T01:04:00.252Z,98.78
2017-10-17T01:06:27.804Z,98.77
2017-10-17T01:08:55.361Z,98.81
2017-10-17T01:11:22.825Z,98.78
2017-10-17T01:13:50.345Z,98.74
2017-10-17T01:16:17.874Z,98.76
2017-10-17T01:18:45.400Z,98.74
2017-10-17T01:21:15.822Z,98.71
2017-10-17T01:23:48.677Z,98.66
2017-10-17T01:26:19.723Z,98.61
2017-10-17T01:28:47.296Z,98.54
2017-10-17T01:31:14.808Z,98.47
2017-10-17T01:46:40.332Z,98.78
2017-10-17T01:49:09.588Z,98.75
2017-10-17T01:51:41.495Z,98.59
2017-10-17T01:54:22.629Z,98.63
2017-10-17T01:56:50.149Z,98.49
2017-10-17T01:59:19.376Z,98.43
2017-10-17T02:01:47.006Z,98.36
2017-10-17T02:04:14.579Z,98.21
2017-10-17T02:06:42.090Z,98.12
2017-10-17T02:09:09.614Z,98.15
2017-10-17T02:11:37.141Z,98.25
2017-10-17T02:14:04.620Z,98.33
2017-10-17T02:16:32.506Z,98.42
2017-10-17T02:19:15.813Z,98.36
2017-10-17T02:21:59.871Z,98.33
2017-10-17T02:24:32.871Z,98.34
2017-10-17T02:27:00.382Z,98.40
2017-10-17T02:29:28.528Z,98.44
2017-10-17T02:31:56.123Z,98.48
2017-10-17T02:34:26.386Z,98.50
2017-10-17T02:36:53.997Z,98.57
2017-10-17T02:39:21.571Z,98.67
2017-10-17T02:41:49.114Z,98.71
2017-10-17T02:44:16.620Z,98.79
2017-10-17T02:46:44.903Z,98.73
2017-10-17T02:49:13.145Z,98.66
2017-10-17T02:51:41.437Z,98.66
2017-10-17T02:54:08.935Z,98.74
2017-10-17T02:56:36.462Z,98.87
2017-10-17T02:59:07.804Z,98.93
2017-10-17T03:01:48.059Z,98.87
2017-10-17T03:04:26.065Z,98.86
2017-10-17T03:06:53.614Z,98.89
2017-10-17T03:09:21.146Z,98.87
2017-10-17T03:11:48.693Z,98.88
2017-10-17T03:14:20.725Z,98.89
2017-10-17T03:16:48.258Z,98.93
2017-10-17T03:19:15.789Z,98.82
2017-10-17T03:21:55.891Z,98.60
2017-10-17T03:24:27.069Z,98.46
2017-10-17T03:26:54.562Z,98.46
2017-10-17T03:29:22.063Z,98.42
2017-10-17T03:31:49.549Z,98.43
2017-10-17T03:34:27.962Z,98.53
2017-10-17T03:40:15.966Z,98.82
2017-10-17T03:42:45.857Z,98.95
2017-10-17T03:45:18.973Z,99.12
2017-10-17T03:48:07.105Z,99.13
2017-10-17T03:50:36.877Z,99.17
2017-10-17T03:56:03.250Z,99.30
2017-10-17T03:58:34.445Z,99.36
2017-10-17T04:01:01.905Z,99.42
2017-10-17T04:03:36.869Z,99.49
2017-10-17T04:09:09.812Z,99.68
2017-10-17T04:11:37.279Z,99.70
2017-10-17T04:17:03.750Z,99.84
2017-10-17T04:19:35.866Z,99.88
2017-10-17T04:22:05.141Z,99.96
2017-10-17T04:24:41.972Z,99.99
2017-10-17T04:27:15.019Z,100.00
2017-10-17T04:29:48.124Z,100.00
2017-10-17T04:32:15.616Z,100.00
2017-10-17T04:34:53.087Z,100.00
2017-10-17T04:37:31.451Z,100.00
2017-10-17T04:39:58.942Z,100.00
2017-10-17T04:42:28.867Z,100.00
2017-10-17T04:48:28.157Z,100.00
2017-10-17T04:51:06.269Z,100.00
2017-10-17T04:56:36.424Z,100.00
2017-10-17T04:59:23.622Z,100.00
2017-10-17T05:01:53.032Z,100.00
2017-10-17T05:04:50.967Z,100.00
2017-10-17T05:07:35.086Z,100.00
2017-10-17T05:10:07.026Z,100.00
2017-10-17T05:12:35.898Z,100.00
2017-10-17T05:15:04.174Z,100.00
2017-10-17T05:17:39.188Z,100.00
2017-10-17T05:20:27.311Z,100.00
2017-10-17T05:23:03.370Z,100.00
2017-10-17T05:25:31.641Z,100.00
2017-10-17T05:28:10.925Z,100.00
2017-10-17T05:30:47.324Z,100.00
2017-10-17T05:36:37.119Z,100.00
2017-10-17T05:39:06.367Z,100.00
2017-10-17T05:41:33.913Z,100.00
2017-10-17T05:44:15.234Z,100.00
2017-10-17T05:46:42.714Z,100.00
2017-10-17T05:49:25.809Z,100.00
2017-10-17T05:51:53.298Z,100.00
2017-10-17T05:54:20.769Z,100.00
2017-10-17T05:56:48.284Z,100.00
2017-10-17T05:59:15.799Z,100.00
2017-10-17T06:01:43.285Z,100.00
2017-10-17T06:04:10.797Z,100.00
2017-10-17T06:06:38.254Z,100.00
2017-10-17T06:09:05.716Z,100.00
2017-10-17T06:11:33.220Z,100.00
2017-10-17T06:14:00.704Z,99.99
2017-10-17T06:16:28.204Z,99.88
2017-10-17T06:18:55.673Z,99.74
2017-10-17T06:21:23.167Z,99.68
2017-10-17T06:23:50.647Z,99.60
2017-10-17T06:26:18.159Z,99.45
2017-10-17T06:28:45.638Z,99.29
2017-10-17T06:31:13.096Z,99.21
2017-10-17T06:33:40.598Z,98.72
2017-10-17T06:38:41.755Z,97.54
2017-10-17T06:41:09.253Z,97.37
2017-10-17T06:43:36.726Z,97.14
2017-10-17T06:46:04.218Z,96.16
2017-10-17T06:48:31.740Z,94.89
2017-10-17T06:50:59.212Z,94.70
2017-10-17T06:53:26.693Z,95.12
2017-10-17T06:55:54.182Z,95.32
2017-10-17T06:58:21.645Z,95.39
2017-10-17T07:00:49.123Z,94.96
2017-10-17T07:03:16.602Z,93.89
2017-10-17T07:05:44.089Z,93.47
2017-10-17T07:08:11.599Z,93.85
2017-10-17T07:10:39.055Z,93.80
2017-10-17T07:13:06.736Z,93.37
2017-10-17T07:15:34.232Z,92.98
2017-10-17T07:18:01.703Z,92.71
2017-10-17T07:20:29.190Z,93.09
2017-10-17T07:22:56.705Z,92.93
2017-10-17T07:25:24.169Z,93.03
2017-10-17T07:27:51.640Z,92.75
2017-10-17T07:30:19.148Z,91.06
2017-10-17T07:32:46.616Z,91.20
2017-10-17T07:35:14.074Z,91.25
2017-10-17T07:37:41.560Z,91.10
2017-10-17T07:40:09.009Z,90.25
2017-10-17T07:42:36.461Z,89.99
2017-10-17T07:45:04.011Z,89.47
2017-10-17T07:47:31.477Z,88.44
2017-10-17T07:49:58.941Z,88.44
2017-10-17T07:52:26.440Z,88.50
2017-10-17T07:54:53.954Z,87.52
2017-10-17T07:57:21.430Z,87.43
2017-10-17T07:59:48.916Z,87.79
2017-10-17T08:02:16.397Z,87.60
2017-10-17T08:04:43.861Z,87.32
2017-10-17T08:07:11.355Z,86.97
2017-10-17T08:09:38.878Z,86.76
2017-10-17T08:12:06.351Z,86.34
2017-10-17T08:14:33.847Z,86.00
2017-10-17T08:17:01.322Z,85.60
2017-10-17T08:19:28.803Z,85.34
2017-10-17T08:21:56.294Z,84.96
2017-10-17T08:24:23.767Z,84.85
2017-10-17T08:26:51.298Z,84.57
2017-10-17T08:29:18.783Z,84.71
2017-10-17T08:31:46.342Z,83.80
2017-10-17T08:34:13.809Z,83.75
2017-10-17T08:36:41.305Z,82.64
2017-10-17T08:39:08.766Z,83.16
2017-10-17T08:41:36.229Z,83.25
2017-10-17T08:44:03.707Z,83.12
2017-10-17T08:46:31.169Z,82.88
2017-10-17T08:48:58.659Z,82.28
2017-10-17T08:51:26.152Z,82.05
2017-10-17T08:53:53.656Z,81.31
2017-10-17T08:56:21.161Z,81.21
2017-10-17T08:58:48.660Z,81.35
2017-10-17T09:01:16.148Z,80.71
2017-10-17T09:03:43.622Z,80.90
2017-10-17T09:06:11.097Z,80.20
2017-10-17T09:08:38.568Z,80.43
2017-10-17T09:11:06.035Z,80.70
2017-10-17T09:13:33.507Z,80.20
2017-10-17T09:16:00.975Z,79.56
2017-10-17T09:18:28.474Z,79.28
2017-10-17T09:20:55.972Z,79.11
2017-10-17T09:23:23.474Z,78.70
2017-10-17T09:25:50.943Z,78.50
2017-10-17T09:28:18.422Z,78.41
2017-10-17T09:30:45.899Z,77.90
2017-10-17T09:33:13.380Z,77.58
2017-10-17T09:35:40.880Z,76.99
2017-10-17T09:38:08.344Z,76.87
2017-10-17T09:40:35.817Z,77.11
2017-10-17T09:43:03.304Z,76.70
2017-10-17T09:45:30.753Z,76.54
2017-10-17T09:47:58.397Z,76.52
2017-10-17T09:50:25.990Z,76.22
2017-10-17T09:52:53.462Z,76.06
2017-10-17T09:55:20.925Z,76.31
2017-10-17T09:57:48.919Z,76.03
2017-10-17T10:00:16.420Z,75.65
2017-10-17T10:02:43.886Z,75.57
2017-10-17T10:05:11.392Z,75.25
2017-10-17T10:07:38.871Z,75.68
2017-10-17T10:10:06.358Z,74.70
2017-10-17T10:12:33.910Z,74.27
2017-10-17T10:15:01.420Z,74.21
2017-10-17T10:17:28.965Z,74.42
2017-10-17T10:19:56.494Z,74.58
2017-10-17T10:22:23.978Z,74.18
2017-10-17T10:24:51.466Z,73.72
2017-10-17T10:27:18.989Z,73.64
2017-10-17T10:29:46.458Z,73.63
2017-10-17T10:32:13.978Z,74.01
2017-10-17T10:34:41.465Z,73.89
2017-10-17T10:37:08.934Z,74.25
2017-10-17T10:39:36.425Z,74.34
2017-10-17T10:42:03.907Z,74.44
2017-10-17T10:44:31.364Z,75.18
2017-10-17T10:46:58.831Z,74.85
2017-10-17T10:49:26.300Z,74.98
2017-10-17T10:51:53.806Z,74.96
2017-10-17T10:54:21.285Z,74.07
2017-10-17T10:56:48.780Z,73.89
2017-10-17T10:59:16.284Z,74.68
2017-10-17T11:01:43.855Z,74.87
2017-10-17T11:04:11.348Z,75.03
2017-10-17T11:06:38.878Z,74.72
2017-10-17T11:09:06.385Z,74.22
2017-10-17T11:11:33.858Z,74.10
2017-10-17T11:14:01.338Z,73.81
2017-10-17T11:16:28.811Z,73.99
2017-10-17T11:18:56.286Z,74.01
2017-10-17T11:21:23.787Z,73.69
2017-10-17T11:23:51.439Z,73.15
2017-10-17T11:26:18.925Z,72.71
2017-10-17T11:28:46.388Z,72.77
2017-10-17T11:31:13.849Z,72.67
2017-10-17T11:33:41.352Z,72.73
2017-10-17T11:36:08.813Z,72.75
2017-10-17T11:38:36.290Z,72.50
2017-10-17T11:41:15.482Z,72.19
2017-10-17T11:43:53.933Z,72.14
2017-10-17T11:46:21.455Z,71.99
2017-10-17T11:48:48.952Z,71.66
2017-10-17T11:51:16.421Z,70.92
2017-10-17T11:53:43.896Z,70.60
2017-10-17T11:56:11.369Z,70.68
2017-10-17T11:58:38.836Z,70.45
2017-10-17T12:01:06.320Z,69.94
2017-10-17T12:03:33.857Z,69.58
2017-10-17T12:06:01.313Z,68.87
2017-10-17T12:08:28.852Z,68.64
2017-10-17T12:10:56.322Z,68.31
2017-10-17T12:13:23.805Z,67.74
2017-10-17T12:15:51.300Z,67.92
2017-10-17T12:18:18.784Z,67.67
2017-10-17T12:20:46.285Z,67.25
2017-10-17T12:23:13.823Z,67.03
2017-10-17T12:25:41.336Z,65.85
2017-10-17T12:28:08.840Z,66.28
2017-10-17T12:30:36.309Z,66.34
2017-10-17T12:33:03.804Z,65.74
2017-10-17T12:35:31.328Z,65.03
2017-10-17T12:37:58.843Z,64.75
2017-10-17T12:40:26.346Z,64.39
2017-10-17T12:42:53.847Z,63.79
2017-10-17T12:45:21.336Z,63.71
2017-10-17T12:47:48.852Z,63.75
2017-10-17T12:50:16.353Z,62.82
2017-10-17T12:52:43.913Z,62.80
2017-10-17T12:55:11.383Z,62.59
2017-10-17T12:57:38.865Z,62.36
2017-10-17T13:00:06.377Z,61.68
2017-10-17T13:02:33.858Z,61.32
2017-10-17T13:05:01.353Z,60.43
2017-10-17T13:07:28.843Z,60.06
2017-10-17T13:09:56.330Z,60.23
2017-10-17T13:12:23.814Z,59.57
2017-10-17T13:14:51.412Z,59.54
2017-10-17T13:17:18.887Z,58.85
2017-10-17T13:19:46.405Z,58.46
2017-10-17T13:22:13.925Z,58.30
2017-10-17T13:24:41.413Z,57.87
2017-10-17T13:27:08.890Z,57.55
2017-10-17T13:29:36.401Z,57.23
2017-10-17T13:32:03.884Z,57.20
2017-10-17T13:34:31.353Z,56.63
2017-10-17T13:36:58.882Z,56.41
2017-10-17T13:39:26.352Z,56.25
2017-10-17T13:41:53.822Z,55.89
2017-10-17T13:44:21.301Z,55.80
2017-10-17T13:46:48.803Z,55.88
2017-10-17T13:49:16.284Z,55.61
2017-10-17T13:51:43.756Z,54.72
2017-10-17T13:54:11.316Z,52.84
2017-10-17T13:56:38.819Z,52.06
2017-10-17T13:59:06.300Z,50.63
2017-10-17T14:01:33.768Z,48.43
2017-10-17T14:04:01.255Z,46.31
2017-10-17T14:06:28.751Z,44.38
2017-10-17T14:08:56.236Z,42.08
2017-10-17T14:11:23.713Z,42.12
2017-10-17T14:13:51.260Z,41.72
2017-10-17T14:16:18.741Z,40.67
2017-10-17T14:18:46.229Z,39.86
2017-10-17T14:21:13.773Z,39.05
2017-10-17T14:23:41.269Z,37.35
2017-10-17T14:26:08.755Z,37.28
2017-10-17T14:28:36.334Z,36.97
2017-10-17T14:31:03.830Z,36.72
2017-10-17T14:33:31.312Z,37.27
2017-10-17T14:35:58.803Z,36.66
2017-10-17T14:38:26.286Z,36.84
2017-10-17T14:40:53.765Z,37.44
2017-10-17T14:43:21.243Z,38.87
2017-10-17T14:45:48.737Z,39.79
2017-10-17T14:48:16.229Z,40.41
2017-10-17T14:50:43.723Z,40.17
2017-10-17T14:53:11.192Z,38.60
2017-10-17T14:55:38.723Z,37.91
2017-10-17T14:58:06.221Z,36.96
2017-10-17T15:00:33.677Z,36.89
2017-10-17T15:03:01.138Z,37.16
2017-10-17T15:05:28.703Z,38.72
2017-10-17T15:07:56.347Z,39.95
2017-10-17T15:10:23.823Z,40.95
2017-10-17T15:12:51.313Z,41.49
2017-10-17T15:15:18.824Z,42.60
2017-10-17T15:17:46.327Z,43.44
2017-10-17T15:20:13.816Z,44.84
2017-10-17T15:22:41.278Z,46.43
2017-10-17T15:25:08.804Z,48.04
2017-10-17T15:27:36.313Z,49.70
2017-10-17T15:30:03.773Z,50.38
2017-10-17T15:32:31.266Z,50.79
2017-10-17T15:34:59.243Z,51.14
2017-10-17T15:37:26.732Z,52.25
2017-10-17T15:39:54.229Z,53.55
2017-10-17T15:42:21.720Z,55.26
2017-10-17T15:44:49.184Z,56.84
2017-10-17T15:47:16.668Z,57.88
2017-10-17T15:49:44.169Z,58.89
2017-10-17T15:52:11.679Z,60.53
2017-10-17T15:54:39.152Z,61.35
2017-10-17T15:57:06.636Z,62.28
2017-10-17T15:59:34.136Z,63.57
2017-10-17T16:02:01.648Z,64.52
2017-10-17T16:04:29.199Z,65.46
2017-10-17T16:06:56.673Z,66.38
2017-10-17T16:09:24.175Z,67.37
2017-10-17T16:11:51.846Z,68.17
2017-10-17T16:14:19.334Z,68.82
2017-10-17T16:16:46.802Z,69.78
2017-10-17T16:19:14.289Z,70.37
2017-10-17T16:21:41.799Z,71.29
2017-10-17T16:24:09.708Z,71.82
2017-10-17T16:26:37.210Z,72.72
2017-10-17T16:29:04.733Z,73.25
2017-10-17T16:31:32.202Z,74.14
2017-10-17T16:33:59.690Z,74.33
2017-10-17T16:36:27.157Z,74.77
2017-10-17T16:41:28.341Z,75.82
2017-10-17T16:43:55.829Z,76.27
2017-10-17T16:46:23.318Z,76.58
2017-10-17T16:48:50.795Z,76.99
2017-10-17T16:51:18.298Z,77.65
2017-10-17T16:53:45.800Z,77.98
2017-10-17T16:56:13.352Z,78.17
2017-10-17T16:58:40.826Z,78.39
2017-10-17T17:01:08.311Z,78.90
2017-10-17T17:16:30.805Z,81.21
2017-10-17T17:18:58.281Z,81.46
2017-10-17T17:21:25.736Z,81.65
2017-10-17T17:23:53.254Z,81.75
2017-10-17T17:26:20.730Z,81.80
2017-10-17T17:28:48.187Z,81.88
2017-10-17T17:31:15.686Z,82.04
2017-10-17T17:33:43.164Z,82.30
2017-10-17T17:36:10.682Z,82.71
2017-10-17T17:38:38.167Z,82.67
2017-10-17T17:41:05.636Z,82.71
2017-10-17T17:43:33.115Z,82.66
2017-10-17T17:46:00.616Z,82.86
2017-10-17T17:48:28.107Z,83.14
2017-10-17T17:50:55.570Z,83.35
2017-10-17T17:53:23.066Z,83.55
2017-10-17T17:55:50.572Z,83.77
2017-10-17T17:58:18.049Z,84.10
2017-10-17T18:00:45.578Z,83.78
2017-10-17T18:03:13.068Z,83.90
2017-10-17T18:05:40.539Z,83.96
2017-10-17T18:08:08.033Z,84.33
2017-10-17T18:10:35.520Z,84.43
2017-10-17T18:13:03.019Z,84.67
2017-10-17T18:15:30.537Z,84.95
2017-10-17T18:17:58.019Z,85.40
2017-10-17T18:20:25.511Z,85.58
2017-10-17T18:22:53.044Z,85.40
2017-10-17T18:25:20.500Z,85.50
2017-10-17T18:27:47.968Z,85.72
2017-10-17T18:30:15.473Z,85.80
2017-10-17T18:32:42.968Z,85.98
2017-10-17T18:35:10.485Z,86.26
2017-10-17T18:37:38.015Z,86.59
2017-10-17T18:40:05.568Z,86.52
2017-10-17T18:42:33.045Z,86.81
2017-10-17T18:45:00.533Z,86.84
2017-10-17T18:47:28.011Z,86.87
2017-10-17T18:49:55.539Z,86.99
2017-10-17T18:52:23.109Z,86.95
2017-10-17T18:54:50.597Z,86.73
2017-10-17T18:57:18.089Z,86.49
2017-10-17T18:59:45.652Z,86.46
2017-10-17T19:02:13.145Z,86.26
2017-10-17T19:04:40.613Z,86.08
2017-10-17T19:07:08.131Z,85.93
2017-10-17T19:09:35.600Z,85.80
2017-10-17T19:12:03.059Z,85.76
2017-10-17T19:14:30.547Z,85.57
2017-10-17T19:16:58.046Z,85.20
2017-10-17T19:19:25.534Z,85.31
2017-10-17T19:21:53.047Z,85.27
2017-10-17T19:24:20.562Z,85.56
2017-10-17T19:26:48.039Z,85.65
2017-10-17T19:29:15.680Z,86.04
2017-10-17T19:31:43.226Z,86.25
2017-10-17T19:34:10.729Z,86.74
2017-10-17T19:36:38.226Z,86.72
2017-10-17T19:39:05.702Z,86.28
2017-10-17T19:41:33.170Z,85.93
2017-10-17T19:44:00.713Z,85.81
2017-10-17T19:46:28.224Z,85.26
2017-10-17T19:48:55.730Z,85.10
2017-10-17T19:51:23.250Z,84.86
2017-10-17T19:53:50.709Z,84.85
2017-10-17T19:56:18.186Z,84.84
2017-10-17T19:58:45.673Z,84.87
2017-10-17T20:01:13.152Z,84.87
2017-10-17T20:03:40.629Z,84.79
2017-10-17T20:06:08.107Z,84.75
2017-10-17T20:08:35.592Z,84.85
2017-10-17T20:11:03.136Z,84.88
2017-10-17T20:13:30.608Z,84.74
2017-10-17T20:15:58.081Z,84.73
2017-10-17T20:18:25.628Z,85.08
2017-10-17T20:20:53.158Z,85.21
2017-10-17T20:23:20.648Z,85.18
2017-10-17T20:25:48.116Z,85.27
2017-10-17T20:28:15.670Z,85.12
2017-10-17T20:30:43.233Z,85.25
2017-10-17T20:33:10.727Z,85.46
2017-10-17T20:35:38.221Z,85.47
2017-10-17T20:38:05.732Z,85.32
2017-10-17T20:40:33.243Z,85.15
2017-10-17T20:43:00.794Z,85.33
2017-10-17T20:45:28.263Z,85.67
2017-10-17T20:47:55.769Z,85.76
2017-10-17T20:50:23.256Z,85.92
2017-10-17T20:52:50.714Z,86.24
2017-10-17T20:55:18.177Z,86.44
2017-10-17T20:57:45.713Z,86.44
2017-10-17T21:00:13.200Z,87.09
2017-10-17T21:02:40.669Z,87.58
2017-10-17T21:05:08.173Z,87.62
2017-10-17T21:07:35.701Z,88.09
2017-10-17T21:10:03.191Z,88.26
2017-10-17T21:12:30.714Z,88.47
2017-10-17T21:14:58.191Z,88.47
2017-10-17T21:17:25.660Z,88.26
2017-10-17T21:19:53.145Z,88.37
2017-10-17T21:22:20.611Z,88.65
2017-10-17T21:24:48.100Z,88.78
2017-10-17T21:27:15.582Z,88.71
2017-10-17T21:29:43.145Z,88.96
2017-10-17T21:32:10.605Z,88.93
2017-10-17T21:34:38.126Z,89.08
2017-10-17T21:37:05.630Z,89.06
2017-10-17T21:39:33.105Z,89.21
2017-10-17T21:42:00.622Z,89.37
2017-10-17T21:44:28.103Z,89.51
2017-10-17T21:46:55.593Z,89.59
2017-10-17T21:49:23.103Z,89.63
2017-10-17T21:51:50.563Z,89.88
2017-10-17T21:54:18.046Z,89.83
2017-10-17T21:56:45.557Z,90.02
2017-10-17T21:59:13.013Z,89.80
2017-10-17T22:01:40.496Z,90.02
2017-10-17T22:04:07.970Z,90.36
2017-10-17T22:06:35.455Z,90.42
2017-10-17T22:09:02.957Z,90.36
2017-10-17T22:11:30.440Z,90.63
2017-10-17T22:13:57.932Z,90.55
2017-10-17T22:16:25.396Z,90.71
2017-10-17T22:21:26.741Z,90.82
2017-10-17T22:23:54.230Z,90.93
2017-10-17T22:26:21.692Z,90.96
2017-10-17T22:28:49.163Z,91.11
2017-10-17T22:31:16.680Z,91.26
2017-10-17T22:33:44.150Z,91.27
2017-10-17T22:36:11.608Z,91.27
2017-10-17T22:38:39.116Z,91.39
2017-10-17T22:41:06.581Z,91.53
2017-10-17T22:43:34.048Z,91.90
2017-10-17T22:46:01.624Z,92.42
2017-10-17T22:48:29.106Z,92.55
2017-10-17T22:50:56.576Z,92.46
2017-10-17T22:53:24.051Z,92.40
2017-10-17T22:55:51.528Z,92.69
2017-10-17T22:58:18.994Z,92.89
2017-10-17T23:00:47.330Z,93.13
2017-10-17T23:03:14.846Z,93.38
2017-10-17T23:05:42.334Z,93.30
2017-10-17T23:08:09.813Z,93.31
2017-10-17T23:10:37.278Z,93.24
2017-10-17T23:13:04.736Z,93.09
2017-10-17T23:15:32.222Z,93.14
2017-10-17T23:18:11.358Z,93.52
2017-10-17T23:20:38.993Z,93.64
2017-10-17T23:23:06.466Z,93.57
2017-10-17T23:25:33.938Z,93.74
2017-10-17T23:28:01.430Z,93.79
2017-10-17T23:30:28.908Z,93.99
2017-10-17T23:32:56.367Z,93.58
2017-10-17T23:35:23.852Z,93.52
2017-10-17T23:37:51.335Z,93.51
2017-10-17T23:40:18.793Z,93.46
2017-10-17T23:42:46.338Z,93.63
2017-10-17T23:45:13.819Z,93.77
2017-10-17T23:47:41.281Z,93.57
2017-10-17T23:50:08.809Z,93.34
2017-10-17T23:52:36.294Z,93.21
2017-10-17T23:55:03.778Z,93.24
2017-10-17T23:57:31.338Z,93.38
2017-10-17T23:59:58.812Z,93.49
